EST,Max TemperatureF,Mean TemperatureF,Min TemperatureF,Max Dew PointF,MeanDew PointF,Min DewpointF,Max Humidity, Mean Humidity, Min Humidity, Max Sea Level PressureIn, Mean Sea Level PressureIn, Min Sea Level PressureIn, Max VisibilityMiles, Mean VisibilityMiles, Min VisibilityMiles, Max Wind SpeedMPH, Mean Wind SpeedMPH, Max Gust SpeedMPH,PrecipitationIn, CloudCover, Events, WindDirDegrees
2014-1-1,30,26,23,14,9,3,68,47,36,30.40,30.34,30.22,10,10,10,15,10,24,0.00,3,,302
2014-1-2,33,30,27,31,27,12,96,87,51,30.32,29.95,29.64,10,3,1,31,18,44,0.03,8,Snow,53
2014-1-3,28,18,6,25,10,-6,93,75,51,30.40,29.84,29.47,10,4,0,43,25,82,0.01,4,Fog-Snow,354
2014-1-4,39,16,-7,30,12,-12,83,67,53,30.53,30.41,30.30,10,10,10,20,8,28,0.00,1,Snow,237
2014-1-5,46,36,27,46,34,24,100,84,70,30.35,30.24,29.95,10,9,1,21,6,25,0.04,5,Rain,188
2014-1-6,55,44,30,54,45,15,100,91,52,29.92,29.55,29.38,10,3,0,24,16,33,0.08,8,Fog-Rain,204
2014-1-7,32,22,10,20,1,-8,69,49,36,30.30,29.93,29.55,10,10,9,24,15,34,0.00,3,Snow,283
2014-1-8,24,18,12,14,6,-3,68,56,49,30.50,30.43,30.31,10,10,10,15,10,21,0.00,2,,273
2014-1-9,30,18,5,9,5,0,80,55,38,30.66,30.58,30.46,10,10,10,15,6,18,0.00,0,,308
2014-1-10,45,26,6,43,33,1,93,87,75,30.62,30.43,30.28,10,8,1,13,4,,0.04,7,Rain-Snow,194
2014-1-11,57,50,44,55,51,43,100,93,86,30.27,29.72,29.37,10,4,0,33,15,45,0.72,8,Fog-Rain,186
2014-1-12,51,44,36,50,38,24,100,77,44,29.99,29.57,29.35,10,8,2,21,13,34,0.07,5,Rain,270
2014-1-13,50,38,28,45,35,25,88,76,60,30.17,30.09,29.97,10,10,10,18,9,28,0.00,0,,221
2014-1-14,53,48,44,52,47,41,96,91,83,29.95,29.78,29.59,10,4,0,20,14,28,0.82,6,Rain,214
2014-1-15,48,37,26,40,35,27,100,91,58,30.05,29.96,29.79,10,4,0,12,3,,0.00,1,Fog,169
2014-1-16,42,40,39,40,39,37,100,95,87,29.93,29.87,29.83,10,3,0,9,3,,0.00,7,Fog,352
2014-1-17,44,35,26,39,34,22,100,88,60,30.01,29.95,29.92,10,6,1,15,3,18,0.00,5,,238
2014-1-18,43,38,33,40,36,30,93,88,81,29.93,29.71,29.58,10,9,2,17,6,25,0.32,7,Rain,248
2014-1-19,39,36,33,34,26,22,87,68,53,29.76,29.69,29.63,10,10,10,24,12,39,0.00,6,,250
2014-1-20,46,41,34,30,25,16,65,53,46,29.85,29.65,29.55,10,10,10,20,13,29,0.00,2,,261
2014-1-21,32,26,19,21,15,0,86,71,37,30.03,29.87,29.71,10,4,0,23,14,39,0.03,7,Fog-Snow,20
2014-1-22,26,19,10,20,12,-3,86,72,43,29.88,29.63,29.52,10,3,0,30,21,41,0.00,6,Fog-Snow,356
2014-1-23,23,15,7,5,-1,-3,67,50,40,30.19,30.04,29.88,10,10,10,17,10,28,0.00,1,,298
2014-1-24,21,11,1,13,0,-7,68,52,38,30.27,30.20,30.11,10,10,6,18,11,26,0.00,2,Snow,287
2014-1-25,41,31,21,31,24,16,89,72,59,30.10,29.68,29.37,10,7,2,31,14,43,0.06,8,Rain-Snow,240
2014-1-26,36,27,19,29,12,1,81,60,42,29.92,29.71,29.38,10,10,10,18,13,29,0.00,4,,268
2014-1-27,48,38,26,43,29,1,83,66,30,29.98,29.75,29.60,10,10,8,20,14,31,0.00,4,,231
2014-1-28,25,20,15,4,-5,-12,50,33,24,30.31,30.23,29.99,10,10,10,18,11,32,0.00,3,,314
2014-1-29,25,21,17,14,10,-1,84,68,35,30.23,30.11,30.02,10,5,1,14,7,24,0.04,5,Snow,333
2014-1-30,33,21,10,24,8,-3,87,55,35,30.46,30.34,30.23,10,10,10,18,9,23,0.00,1,,257
2014-1-31,39,36,33,36,27,22,86,71,54,30.22,30.12,30.05,10,10,10,15,10,20,0.00,4,,249